createdAt,value
2023-03-04T00:02:24.995Z,3.30
2023-03-04T00:04:53.078Z,3.47
2023-03-04T00:07:21.045Z,2.83
2023-03-04T00:09:48.999Z,3.60
2023-03-04T00:12:16.973Z,3.00
2023-03-04T00:14:44.924Z,3.20
2023-03-04T00:17:12.992Z,3.97
2023-03-04T00:19:42.276Z,3.47
2023-03-04T00:22:10.282Z,2.70
2023-03-04T00:24:38.283Z,2.80
2023-03-04T00:27:06.259Z,3.30
2023-03-04T00:29:34.300Z,2.80
2023-03-04T00:32:02.430Z,2.90
2023-03-04T00:34:32.747Z,4.10
2023-03-04T00:37:03.645Z,3.30
2023-03-04T00:39:31.695Z,2.75
2023-03-04T00:41:59.641Z,3.58
2023-03-04T00:44:27.588Z,3.10
2023-03-04T00:46:55.467Z,3.17
2023-03-04T00:49:23.533Z,2.60
2023-03-04T00:51:51.522Z,3.50
2023-03-04T00:54:21.630Z,3.55
2023-03-04T00:56:49.601Z,3.20
2023-03-04T00:59:17.610Z,3.25
2023-03-04T01:01:45.646Z,2.70
2023-03-04T01:04:13.579Z,3.05
2023-03-04T01:06:41.641Z,3.13
2023-03-04T01:09:09.691Z,3.05
2023-03-04T01:11:39.123Z,3.13
2023-03-04T01:14:07.197Z,3.08
2023-03-04T01:16:35.180Z,3.25
2023-03-04T01:19:03.424Z,2.63
2023-03-04T01:21:31.614Z,2.70
2023-03-04T01:23:59.638Z,3.00
2023-03-04T01:26:27.651Z,3.08
2023-03-04T01:28:57.014Z,3.20
2023-03-04T01:31:25.068Z,2.90
2023-03-04T01:33:53.001Z,3.05
2023-03-04T01:36:21.051Z,2.92
2023-03-04T01:38:49.074Z,3.20
2023-03-04T01:41:22.863Z,2.40
2023-03-04T01:43:50.966Z,2.80
2023-03-04T01:46:21.787Z,2.95
2023-03-04T01:48:49.891Z,2.58
2023-03-04T01:51:21.024Z,2.53
2023-03-04T01:53:53.278Z,2.00
2023-03-04T01:56:25.162Z,2.40
2023-03-04T01:59:14.497Z,2.40
2023-03-04T02:01:46.211Z,2.80
2023-03-04T02:04:16.863Z,3.28
2023-03-04T02:06:45.756Z,2.83
2023-03-04T02:09:13.954Z,2.20
2023-03-04T02:11:42.367Z,1.92
2023-03-04T02:14:11.780Z,2.03
2023-03-04T02:16:40.107Z,2.70
2023-03-04T02:19:17.650Z,3.20
2023-03-04T02:21:45.673Z,2.70
2023-03-04T02:24:18.266Z,3.42
2023-03-04T02:26:48.138Z,2.70
2023-03-04T02:29:17.688Z,2.42
2023-03-04T02:31:49.205Z,2.70
2023-03-04T02:34:20.047Z,2.70
2023-03-04T02:36:49.760Z,2.85
2023-03-04T02:39:26.242Z,3.40
2023-03-04T02:41:57.451Z,3.00
2023-03-04T02:44:27.455Z,2.60
2023-03-04T02:46:56.207Z,2.55
2023-03-04T02:49:26.496Z,2.70
2023-03-04T02:51:59.705Z,2.80
2023-03-04T02:54:27.693Z,2.90
2023-03-04T02:56:58.754Z,3.30
2023-03-04T02:59:26.759Z,3.03
2023-03-04T03:01:55.259Z,2.60
2023-03-04T03:04:25.305Z,2.60
2023-03-04T03:06:53.596Z,2.47
2023-03-04T03:09:21.706Z,2.40
2023-03-04T03:11:49.734Z,2.20
2023-03-04T03:14:19.399Z,3.72
2023-03-04T03:16:47.533Z,3.00
2023-03-04T03:19:15.460Z,2.83
2023-03-04T03:21:43.440Z,2.75
2023-03-04T03:24:11.366Z,2.30
2023-03-04T03:26:40.001Z,2.80
2023-03-04T03:29:08.118Z,2.75
2023-03-04T03:31:37.466Z,3.47
2023-03-04T03:34:05.556Z,4.03
2023-03-04T03:36:33.534Z,2.90
2023-03-04T03:39:01.512Z,3.30
2023-03-04T03:41:29.479Z,2.80
2023-03-04T03:43:57.440Z,2.70
2023-03-04T03:46:25.506Z,3.55
2023-03-04T03:48:54.811Z,3.80
2023-03-04T03:51:22.835Z,3.33
2023-03-04T03:53:50.751Z,3.67
2023-03-04T03:56:18.718Z,3.05
2023-03-04T03:58:46.629Z,3.20
2023-03-04T04:01:14.605Z,2.90
2023-03-04T04:03:42.581Z,3.30
2023-03-04T04:06:11.885Z,3.80
2023-03-04T04:08:40.042Z,3.13
2023-03-04T04:11:10.130Z,3.15
2023-03-04T04:13:39.354Z,2.70
2023-03-04T04:16:08.693Z,3.60
2023-03-04T04:18:36.689Z,2.90
2023-03-04T04:21:05.308Z,2.50
2023-03-04T04:23:35.050Z,3.30
2023-03-04T04:26:03.053Z,2.63
2023-03-04T04:28:31.042Z,2.57
2023-03-04T04:30:59.133Z,2.77
2023-03-04T04:33:27.434Z,2.30
2023-03-04T04:35:55.434Z,2.70
2023-03-04T04:38:24.733Z,2.65
2023-03-04T04:40:54.192Z,2.70
2023-03-04T04:43:22.120Z,2.92
2023-03-04T04:45:50.130Z,2.40
2023-03-04T04:48:18.058Z,2.90
2023-03-04T04:50:45.999Z,2.97
2023-03-04T04:53:14.593Z,2.92
2023-03-04T04:55:42.571Z,2.88
2023-03-04T04:58:11.841Z,3.88
2023-03-04T05:00:39.831Z,3.63
2023-03-04T05:03:07.828Z,2.90
2023-03-04T05:05:35.839Z,3.00
2023-03-04T05:08:03.906Z,3.00
2023-03-04T05:10:31.864Z,2.75
2023-03-04T05:12:59.865Z,2.70
2023-03-04T05:15:29.333Z,3.50
2023-03-04T05:17:57.473Z,3.20
2023-03-04T05:20:25.690Z,3.25
2023-03-04T05:22:53.705Z,2.88
2023-03-04T05:25:21.601Z,3.65
2023-03-04T05:27:49.594Z,3.03
2023-03-04T05:30:17.733Z,2.90
2023-03-04T05:32:47.137Z,2.80
2023-03-04T05:35:15.163Z,3.42
2023-03-04T05:37:43.173Z,2.50
2023-03-04T05:40:12.480Z,2.17
2023-03-04T05:42:40.416Z,2.20
2023-03-04T05:45:09.648Z,2.55
2023-03-04T05:47:37.654Z,2.50
2023-03-04T05:50:08.143Z,2.97
2023-03-04T05:52:36.115Z,3.00
2023-03-04T05:55:04.154Z,2.70
2023-03-04T05:57:32.519Z,2.47
2023-03-04T06:00:00.536Z,2.80
2023-03-04T06:02:28.608Z,2.80
2023-03-04T06:04:56.624Z,2.10
2023-03-04T06:07:25.982Z,2.58
2023-03-04T06:09:53.906Z,3.00
2023-03-04T06:12:22.238Z,3.22
2023-03-04T06:14:50.201Z,2.80
2023-03-04T06:17:18.369Z,2.40
2023-03-04T06:19:46.333Z,2.17
2023-03-04T06:22:14.305Z,2.88
2023-03-04T06:24:43.624Z,2.50
2023-03-04T06:27:11.879Z,2.90
2023-03-04T06:29:39.852Z,2.67
2023-03-04T06:32:07.978Z,2.77
2023-03-04T06:34:36.235Z,2.45
2023-03-04T06:37:04.476Z,2.20
2023-03-04T06:39:32.900Z,2.95
2023-03-04T06:42:02.223Z,2.22
2023-03-04T06:44:30.366Z,2.90
2023-03-04T06:46:58.416Z,2.70
2023-03-04T06:49:26.499Z,2.50
2023-03-04T06:51:54.537Z,2.45
2023-03-04T06:54:22.679Z,2.28
2023-03-04T06:56:50.651Z,2.67
2023-03-04T06:59:19.990Z,2.70
2023-03-04T07:01:47.933Z,3.20
2023-03-04T07:04:16.199Z,3.00
2023-03-04T07:06:44.162Z,2.83
2023-03-04T07:09:12.130Z,2.40
2023-03-04T07:11:40.281Z,2.67
2023-03-04T07:14:08.351Z,2.50
2023-03-04T07:16:37.938Z,2.30
2023-03-04T07:19:06.244Z,2.85
2023-03-04T07:21:34.659Z,3.03
2023-03-04T07:24:02.657Z,2.72
2023-03-04T07:26:30.953Z,2.50
2023-03-04T07:28:59.938Z,2.80
2023-03-04T07:31:30.499Z,2.63
2023-03-04T07:34:01.573Z,2.60
2023-03-04T07:36:29.943Z,1.83
2023-03-04T07:38:58.283Z,2.63
2023-03-04T07:41:27.992Z,2.78
2023-03-04T07:43:57.600Z,1.80
2023-03-04T07:46:26.356Z,2.08
2023-03-04T07:48:54.357Z,1.80
2023-03-04T07:51:25.996Z,1.80
2023-03-04T07:53:55.353Z,1.75
2023-03-04T07:56:25.941Z,2.10
2023-03-04T07:58:54.390Z,2.40
2023-03-04T08:01:24.408Z,2.43
2023-03-04T08:03:52.587Z,1.50
2023-03-04T08:06:21.907Z,1.70
2023-03-04T08:08:56.471Z,1.50
2023-03-04T08:11:24.514Z,1.93
2023-03-04T08:13:54.072Z,1.80
2023-03-04T08:16:23.587Z,1.70
2023-03-04T08:18:53.878Z,2.38
2023-03-04T08:21:22.854Z,1.80
2023-03-04T08:23:52.880Z,1.30
2023-03-04T08:26:23.745Z,2.30
2023-03-04T08:28:52.660Z,1.70
2023-03-04T08:31:20.828Z,2.00
2023-03-04T08:33:48.952Z,1.92
2023-03-04T08:36:17.332Z,2.00
2023-03-04T08:38:45.449Z,2.15
2023-03-04T08:41:15.403Z,1.80
2023-03-04T08:43:43.725Z,1.90
2023-03-04T08:46:11.629Z,1.60
2023-03-04T08:48:39.964Z,2.35
2023-03-04T08:51:12.316Z,1.48
2023-03-04T08:53:40.657Z,1.98
2023-03-04T08:56:09.606Z,2.00
2023-03-04T08:58:38.876Z,1.30
2023-03-04T09:01:09.974Z,1.58
2023-03-04T09:03:38.293Z,1.58
2023-03-04T09:06:07.357Z,1.60
2023-03-04T09:08:35.716Z,1.60
2023-03-04T09:11:04.424Z,1.90
2023-03-04T09:13:33.012Z,1.93
2023-03-04T09:16:02.993Z,1.50
2023-03-04T09:18:31.091Z,1.33
2023-03-04T09:20:58.990Z,1.55
2023-03-04T09:23:26.922Z,1.40
2023-03-04T09:25:54.864Z,1.40
2023-03-04T09:28:22.831Z,1.67
2023-03-04T09:30:50.752Z,2.20
2023-03-04T09:33:20.133Z,2.10
2023-03-04T09:35:49.891Z,1.67
2023-03-04T09:38:17.825Z,1.70
2023-03-04T09:40:49.116Z,1.30
2023-03-04T09:43:23.489Z,1.52
2023-03-04T09:45:55.990Z,1.83
2023-03-04T09:48:28.461Z,2.10
2023-03-04T09:51:11.025Z,2.00
2023-03-04T09:53:48.466Z,1.80
2023-03-04T09:56:16.474Z,1.67
2023-03-04T09:58:52.056Z,1.25
2023-03-04T10:01:26.540Z,1.55
2023-03-04T10:04:00.525Z,1.40
2023-03-04T10:06:29.637Z,1.42
2023-03-04T10:09:01.471Z,2.20
2023-03-04T10:11:35.157Z,2.10
2023-03-04T10:14:14.402Z,1.63
2023-03-04T10:16:46.845Z,1.67
2023-03-04T10:19:35.335Z,1.60
2023-03-04T10:22:12.341Z,1.73
2023-03-04T10:24:40.292Z,2.00
2023-03-04T10:27:14.707Z,1.40
2023-03-04T10:29:42.607Z,2.03
2023-03-04T10:32:15.153Z,2.38
2023-03-04T10:34:44.534Z,2.00
2023-03-04T10:37:12.653Z,1.75
2023-03-04T10:39:41.851Z,1.52
2023-03-04T10:42:28.796Z,1.50
2023-03-04T10:44:58.614Z,2.08
2023-03-04T10:47:28.548Z,2.47
2023-03-04T10:49:59.327Z,2.38
2023-03-04T10:52:32.664Z,2.28
2023-03-04T10:55:03.934Z,2.22
2023-03-04T10:57:37.052Z,1.80
2023-03-04T11:00:31.940Z,1.92
2023-03-04T11:03:25.018Z,1.90
2023-03-04T11:06:23.154Z,2.08
2023-03-04T11:08:59.078Z,1.90
2023-03-04T11:11:34.640Z,2.60
2023-03-04T11:14:07.457Z,2.20
2023-03-04T11:16:35.465Z,1.70
2023-03-04T11:19:07.449Z,2.03
2023-03-04T11:21:40.793Z,1.77
2023-03-04T11:24:27.689Z,1.95
2023-03-04T11:27:02.790Z,2.30
2023-03-04T11:29:35.007Z,2.45
2023-03-04T11:32:11.145Z,2.45
2023-03-04T11:34:43.495Z,2.50
2023-03-04T11:37:19.712Z,1.90
2023-03-04T11:39:51.891Z,2.00
2023-03-04T11:42:29.290Z,1.98
2023-03-04T11:44:57.641Z,2.45
2023-03-04T11:47:46.297Z,2.50
2023-03-04T11:50:28.558Z,2.50
2023-03-04T11:53:16.599Z,2.50
2023-03-04T11:55:49.344Z,2.53
2023-03-04T11:58:40.571Z,2.63
2023-03-04T12:01:11.141Z,3.30
2023-03-04T12:04:02.123Z,3.67
2023-03-04T12:06:38.210Z,3.35
2023-03-04T12:09:26.920Z,4.20
2023-03-04T12:12:05.092Z,3.60
2023-03-04T12:14:41.290Z,3.97
2023-03-04T12:17:30.464Z,4.20
2023-03-04T12:20:19.676Z,3.58
2023-03-04T12:22:52.513Z,3.50
2023-03-04T12:25:34.040Z,3.90
2023-03-04T12:28:13.020Z,4.00
2023-03-04T12:30:52.053Z,3.73
2023-03-04T12:33:28.940Z,3.80
2023-03-04T12:36:07.561Z,3.40
2023-03-04T12:38:44.189Z,3.95
2023-03-04T12:41:28.287Z,3.25
2023-03-04T12:44:05.236Z,2.85
2023-03-04T12:46:43.312Z,3.30
2023-03-04T12:49:35.632Z,2.60
2023-03-04T12:52:11.568Z,2.42
2023-03-04T12:54:42.732Z,2.95
2023-03-04T12:57:15.087Z,2.97
2023-03-04T12:59:49.290Z,3.60
2023-03-04T13:02:45.788Z,3.40
2023-03-04T13:05:32.942Z,3.23
2023-03-04T13:08:09.491Z,2.90
2023-03-04T13:10:37.417Z,2.50
2023-03-04T13:13:06.751Z,2.33
2023-03-04T13:15:36.694Z,2.20
2023-03-04T13:18:21.384Z,2.50
2023-03-04T13:21:07.814Z,2.60
2023-03-04T13:23:35.835Z,2.83
2023-03-04T13:26:19.194Z,2.03
2023-03-04T13:28:54.981Z,2.20
2023-03-04T13:31:27.039Z,2.28
2023-03-04T13:34:00.825Z,2.22
2023-03-04T13:36:59.646Z,2.30
2023-03-04T13:39:37.156Z,2.55
2023-03-04T13:42:21.011Z,2.30
2023-03-04T13:45:04.464Z,2.53
2023-03-04T13:47:49.595Z,2.80
2023-03-04T13:50:37.678Z,2.40
2023-03-04T13:53:30.500Z,2.65
2023-03-04T13:56:22.851Z,2.60
2023-03-04T13:58:53.267Z,2.50
2023-03-04T14:01:28.507Z,2.58
2023-03-04T14:03:56.659Z,3.63
2023-03-04T14:06:25.903Z,3.28
2023-03-04T14:08:54.864Z,3.20
2023-03-04T14:11:28.712Z,2.58
2023-03-04T14:13:59.948Z,3.00
2023-03-04T14:16:30.544Z,2.40
2023-03-04T14:19:04.082Z,2.70
2023-03-04T14:21:32.517Z,2.75
2023-03-04T14:24:05.843Z,3.20
2023-03-04T14:26:34.594Z,4.15
2023-03-04T14:29:03.025Z,3.55
2023-03-04T14:31:36.974Z,2.80
2023-03-04T14:34:05.785Z,3.08
2023-03-04T14:36:37.069Z,3.70
2023-03-04T14:39:08.362Z,3.25
2023-03-04T14:41:38.476Z,3.15
2023-03-04T14:44:15.395Z,3.70
2023-03-04T14:47:05.976Z,2.85
2023-03-04T14:49:36.811Z,3.70
2023-03-04T14:52:05.046Z,3.83
2023-03-04T14:54:36.548Z,3.40
2023-03-04T14:57:23.935Z,3.13
2023-03-04T14:59:52.987Z,3.90
2023-03-04T15:02:31.279Z,3.77
2023-03-04T15:05:02.371Z,3.15
2023-03-04T15:07:34.699Z,3.13
2023-03-04T15:10:05.689Z,3.13
2023-03-04T15:12:36.238Z,3.75
2023-03-04T15:15:06.006Z,3.55
2023-03-04T15:17:42.490Z,3.08
2023-03-04T15:20:27.826Z,2.30
2023-03-04T15:23:01.273Z,2.97
2023-03-04T15:25:29.781Z,3.30
2023-03-04T15:28:01.124Z,2.90
2023-03-04T15:30:33.402Z,2.95
2023-03-04T15:33:02.919Z,3.75
2023-03-04T15:35:34.075Z,3.80
2023-03-04T15:38:02.454Z,2.85
2023-03-04T15:40:33.180Z,3.10
2023-03-04T15:43:03.688Z,2.80
2023-03-04T15:45:35.962Z,3.47
2023-03-04T15:48:08.964Z,2.80
2023-03-04T15:50:38.910Z,2.80
2023-03-04T15:53:09.543Z,2.78
2023-03-04T15:55:37.650Z,3.40
2023-03-04T15:58:05.979Z,3.40
2023-03-04T16:00:34.592Z,3.72
2023-03-04T16:03:02.551Z,2.90
2023-03-04T16:05:32.870Z,3.03
2023-03-04T16:08:00.966Z,2.40
2023-03-04T16:10:31.145Z,2.63
2023-03-04T16:12:59.225Z,2.60
2023-03-04T16:15:29.208Z,3.03
2023-03-04T16:17:57.654Z,3.15
2023-03-04T16:20:29.006Z,2.80
2023-03-04T16:23:00.577Z,2.30
2023-03-04T16:25:30.232Z,2.15
2023-03-04T16:27:59.027Z,2.38
2023-03-04T16:30:28.121Z,2.78
2023-03-04T16:32:56.419Z,2.50
2023-03-04T16:35:25.251Z,2.50
2023-03-04T16:37:53.685Z,2.87
2023-03-04T16:40:26.969Z,3.38
2023-03-04T16:42:54.970Z,3.00
2023-03-04T16:45:25.015Z,2.50
2023-03-04T16:47:53.773Z,2.80
2023-03-04T16:50:27.099Z,2.42
2023-03-04T16:52:56.596Z,2.40
2023-03-04T16:55:28.040Z,3.00
2023-03-04T16:57:57.841Z,2.85
2023-03-04T17:00:28.883Z,3.20
2023-03-04T17:02:58.679Z,2.92
2023-03-04T17:05:30.006Z,3.03
2023-03-04T17:07:58.328Z,3.00
2023-03-04T17:10:28.246Z,2.80
2023-03-04T17:12:56.552Z,2.50
2023-03-04T17:15:24.903Z,2.80
2023-03-04T17:17:53.301Z,2.97
2023-03-04T17:20:21.401Z,3.38
2023-03-04T17:22:49.375Z,3.40
2023-03-04T17:25:17.518Z,3.33
2023-03-04T17:27:46.952Z,3.10
2023-03-04T17:30:15.533Z,2.92
2023-03-04T17:32:43.524Z,3.60
2023-03-04T17:35:12.224Z,2.78
2023-03-04T17:37:40.658Z,3.10
2023-03-04T17:40:13.974Z,3.10
2023-03-04T17:42:42.132Z,3.38
2023-03-04T17:45:12.651Z,3.15
2023-03-04T17:47:40.653Z,3.92
2023-03-04T17:50:09.782Z,3.30
2023-03-04T17:52:37.903Z,3.25
2023-03-04T17:55:06.646Z,3.50
2023-03-04T17:57:37.623Z,3.08
2023-03-04T18:00:06.575Z,3.10
2023-03-04T18:02:35.942Z,3.30
2023-03-04T18:05:06.792Z,3.90
2023-03-04T18:07:35.172Z,3.42
2023-03-04T18:10:03.217Z,3.33
2023-03-04T18:12:31.241Z,2.95
2023-03-04T18:14:59.258Z,3.33
2023-03-04T18:17:27.636Z,3.80
2023-03-04T18:19:57.607Z,3.00
2023-03-04T18:22:25.703Z,3.80
2023-03-04T18:24:53.641Z,4.40
2023-03-04T18:27:21.574Z,4.40
2023-03-04T18:29:49.502Z,3.42
2023-03-04T18:32:17.491Z,3.33
2023-03-04T18:34:45.539Z,4.10
2023-03-04T18:37:14.896Z,3.40
2023-03-04T18:39:42.948Z,4.30
2023-03-04T18:42:11.121Z,4.18
2023-03-04T18:44:39.332Z,4.65
2023-03-04T18:47:07.962Z,4.37
2023-03-04T18:49:35.998Z,3.60
2023-03-04T18:52:04.050Z,4.20
2023-03-04T18:54:33.447Z,3.95
2023-03-04T18:57:07.799Z,3.67
2023-03-04T18:59:39.753Z,4.18
2023-03-04T19:02:14.473Z,4.57
2023-03-04T19:04:42.537Z,4.57
2023-03-04T19:07:10.490Z,4.40
2023-03-04T19:09:39.805Z,4.07
2023-03-04T19:12:07.957Z,4.20
2023-03-04T19:14:35.963Z,4.72
2023-03-04T19:17:03.975Z,4.22
2023-03-04T19:19:31.933Z,4.25
2023-03-04T19:22:00.167Z,5.38
2023-03-04T19:24:28.260Z,5.13
2023-03-04T19:26:57.606Z,5.10
2023-03-04T19:29:25.576Z,4.00
2023-03-04T19:31:53.595Z,4.63
2023-03-04T19:34:21.529Z,4.03
2023-03-04T19:36:49.564Z,4.38
2023-03-04T19:39:18.613Z,4.00
2023-03-04T19:41:46.627Z,4.93
2023-03-04T19:44:16.004Z,4.00
2023-03-04T19:46:44.035Z,4.88
2023-03-04T19:49:12.062Z,4.40
2023-03-04T19:51:40.182Z,5.07
2023-03-04T19:54:08.912Z,5.05
2023-03-04T19:56:36.832Z,4.65
2023-03-04T19:59:05.006Z,5.67
2023-03-04T20:01:36.349Z,5.70
2023-03-04T20:04:07.092Z,5.85
2023-03-04T20:06:37.573Z,5.47
2023-03-04T20:09:06.024Z,4.40
2023-03-04T20:11:39.242Z,4.90
2023-03-04T20:14:12.144Z,4.85
2023-03-04T20:16:41.686Z,4.63
2023-03-04T20:19:09.615Z,5.00
2023-03-04T20:21:37.683Z,5.25
2023-03-04T20:24:06.235Z,4.90
2023-03-04T20:26:34.375Z,4.20
2023-03-04T20:29:02.660Z,4.05
2023-03-04T20:31:32.513Z,4.30
2023-03-04T20:34:01.981Z,4.30
2023-03-04T20:36:31.420Z,5.20
2023-03-04T20:39:02.842Z,5.40
2023-03-04T20:41:34.705Z,5.32
2023-03-04T20:44:02.788Z,5.32
2023-03-04T20:46:38.182Z,5.20
2023-03-04T20:49:10.961Z,5.70
2023-03-04T20:51:39.872Z,5.40
2023-03-04T20:54:08.951Z,5.27
2023-03-04T20:56:37.897Z,5.00
2023-03-04T20:59:08.170Z,5.00
2023-03-04T21:01:36.773Z,5.30
2023-03-04T21:04:05.506Z,4.75
2023-03-04T21:06:34.940Z,4.78
2023-03-04T21:09:05.969Z,4.00
2023-03-04T21:11:40.022Z,3.80
2023-03-04T21:14:09.504Z,3.88
2023-03-04T21:16:37.463Z,4.50
2023-03-04T21:19:05.503Z,5.30
2023-03-04T21:21:34.859Z,4.15
2023-03-04T21:24:02.870Z,4.05
2023-03-04T21:26:30.847Z,4.32
2023-03-04T21:28:58.795Z,4.18
2023-03-04T21:31:30.345Z,4.35
2023-03-04T21:34:00.186Z,4.50
2023-03-04T21:36:28.509Z,4.50
2023-03-04T21:38:57.914Z,4.28
2023-03-04T21:41:25.976Z,4.40
2023-03-04T21:43:53.962Z,3.63
2023-03-04T21:46:23.333Z,4.00
2023-03-04T21:48:51.468Z,3.35
2023-03-04T21:51:19.468Z,4.10
2023-03-04T21:53:47.466Z,3.95
2023-03-04T21:56:16.869Z,4.03
2023-03-04T21:58:45.937Z,3.22
2023-03-04T22:01:15.877Z,3.60
2023-03-04T22:03:44.112Z,3.25
2023-03-04T22:06:13.433Z,3.53
2023-03-04T22:08:42.407Z,3.30
2023-03-04T22:11:12.311Z,3.70
2023-03-04T22:13:41.771Z,3.90
2023-03-04T22:16:10.511Z,3.20
2023-03-04T22:18:40.691Z,3.10
2023-03-04T22:21:10.971Z,3.50
2023-03-04T22:23:39.271Z,3.53
2023-03-04T22:26:09.442Z,3.30
2023-03-04T22:28:37.680Z,4.28
2023-03-04T22:31:16.876Z,4.82
2023-03-04T22:33:45.494Z,4.20
2023-03-04T22:36:14.546Z,4.20
2023-03-04T22:38:44.596Z,3.90
2023-03-04T22:41:14.795Z,3.50
2023-03-04T22:43:42.833Z,3.90
2023-03-04T22:46:17.587Z,4.20
2023-03-04T22:48:45.560Z,4.43
2023-03-04T22:51:13.595Z,4.70
2023-03-04T22:53:43.477Z,3.85
2023-03-04T22:56:12.250Z,4.13
2023-03-04T22:58:40.333Z,3.80
2023-03-04T23:01:09.217Z,3.47
2023-03-04T23:03:39.310Z,3.42
2023-03-04T23:06:09.860Z,3.70
2023-03-04T23:08:40.028Z,3.95
2023-03-04T23:11:10.192Z,3.92
2023-03-04T23:13:38.797Z,3.30
2023-03-04T23:16:08.915Z,3.15
2023-03-04T23:18:39.073Z,3.13
2023-03-04T23:21:07.723Z,3.05
2023-03-04T23:23:35.998Z,3.13
2023-03-04T23:26:04.613Z,2.90
2023-03-04T23:28:32.895Z,2.95
2023-03-04T23:31:00.892Z,2.60
2023-03-04T23:33:28.879Z,2.83
2023-03-04T23:35:58.197Z,3.00
2023-03-04T23:38:26.197Z,2.60
2023-03-04T23:40:54.224Z,2.60
2023-03-04T23:43:22.161Z,3.13
2023-03-04T23:45:50.208Z,3.30
2023-03-04T23:48:18.178Z,2.40
2023-03-04T23:50:51.892Z,2.57
2023-03-04T23:53:21.593Z,2.20
2023-03-04T23:55:49.523Z,2.20
2023-03-04T23:58:17.542Z,2.40
